createdAt,value
2018-08-30T04:00:53.064Z,1011.13
2018-08-30T04:01:52.946Z,1011.15
2018-08-30T04:03:45.643Z,1011.18
2018-08-30T04:04:45.508Z,1011.15
2018-08-30T04:06:38.183Z,1011.16
2018-08-30T04:07:38.077Z,1011.13
2018-08-30T04:09:30.770Z,1011.17
2018-08-30T04:10:30.642Z,1011.20
2018-08-30T04:12:23.319Z,1011.23
2018-08-30T04:13:23.263Z,1011.21
2018-08-30T04:15:15.915Z,1011.25
2018-08-30T04:16:15.785Z,1011.23
2018-08-30T04:18:08.461Z,1011.26
2018-08-30T04:19:08.358Z,1011.27
2018-08-30T04:21:01.549Z,1011.34
2018-08-30T04:22:01.443Z,1011.32
2018-08-30T04:23:54.094Z,1011.35
2018-08-30T04:24:53.992Z,1011.31
2018-08-30T04:26:46.676Z,1011.34
2018-08-30T04:27:46.558Z,1011.38
2018-08-30T04:29:39.233Z,1011.36
2018-08-30T04:30:39.130Z,1011.38
2018-08-30T04:32:31.817Z,1011.35
2018-08-30T04:33:31.695Z,1011.36
2018-08-30T04:35:24.371Z,1011.32
2018-08-30T04:36:24.265Z,1011.31
2018-08-30T04:38:16.952Z,1011.33
2018-08-30T04:39:16.835Z,1011.32
2018-08-30T04:41:09.509Z,1011.34
2018-08-30T04:42:09.443Z,1011.37
2018-08-30T04:44:02.093Z,1011.41
2018-08-30T04:45:01.964Z,1011.41
2018-08-30T04:46:54.667Z,1011.41
2018-08-30T04:47:54.539Z,1011.40
2018-08-30T04:49:47.216Z,1011.45
2018-08-30T04:50:47.109Z,1011.44
2018-08-30T04:52:39.814Z,1011.44
2018-08-30T04:53:39.683Z,1011.46
2018-08-30T04:55:32.358Z,1011.50
2018-08-30T04:56:32.248Z,1011.50
2018-08-30T04:58:24.942Z,1011.53
2018-08-30T04:59:24.820Z,1011.57
2018-08-30T05:01:17.490Z,1011.52
2018-08-30T05:02:17.388Z,1011.52
2018-08-30T05:04:10.076Z,1011.54
2018-08-30T05:05:09.954Z,1011.61
2018-08-30T05:07:02.631Z,1011.61
2018-08-30T05:08:02.520Z,1011.61
2018-08-30T05:09:55.272Z,1011.63
2018-08-30T05:10:55.092Z,1011.64
2018-08-30T05:12:47.768Z,1011.65
2018-08-30T05:13:47.656Z,1011.68
2018-08-30T05:15:40.351Z,1011.68
2018-08-30T05:16:40.283Z,1011.71
2018-08-30T05:18:32.895Z,1011.76
2018-08-30T05:19:32.792Z,1011.77
2018-08-30T05:21:25.476Z,1011.77
2018-08-30T05:22:25.360Z,1011.77
2018-08-30T05:24:18.030Z,1011.79
2018-08-30T05:25:17.925Z,1011.78
2018-08-30T05:27:10.609Z,1011.79
2018-08-30T05:28:10.495Z,1011.76
2018-08-30T05:30:03.175Z,1011.83
2018-08-30T05:31:03.065Z,1011.77
2018-08-30T05:32:55.759Z,1011.83
2018-08-30T05:33:55.640Z,1011.88
2018-08-30T05:35:48.397Z,1011.89
2018-08-30T05:36:48.204Z,1011.93
2018-08-30T05:38:41.050Z,1011.95
2018-08-30T05:39:40.773Z,1011.93
2018-08-30T05:41:33.451Z,1012.00
2018-08-30T05:42:33.356Z,1011.99
2018-08-30T05:44:26.046Z,1012.05
2018-08-30T05:45:25.918Z,1012.08
2018-08-30T05:47:18.592Z,1012.03
2018-08-30T05:48:18.493Z,1012.11
2018-08-30T05:50:11.177Z,1012.10
2018-08-30T05:51:11.058Z,1012.08
2018-08-30T05:53:03.734Z,1012.13
2018-08-30T05:54:03.625Z,1012.16
2018-08-30T05:55:56.316Z,1012.16
2018-08-30T05:56:56.219Z,1012.18
2018-08-30T05:58:48.866Z,1012.16
2018-08-30T05:59:48.762Z,1012.24
2018-08-30T06:01:41.463Z,1012.21
2018-08-30T06:02:41.338Z,1012.22
2018-08-30T06:04:34.016Z,1012.22
2018-08-30T06:05:33.905Z,1012.26
2018-08-30T06:07:26.661Z,1012.23
2018-08-30T06:08:26.548Z,1012.25
2018-08-30T06:10:19.653Z,1012.23
2018-08-30T06:11:19.548Z,1012.26
2018-08-30T06:13:12.304Z,1012.30
2018-08-30T06:14:12.121Z,1012.37
2018-08-30T06:16:04.790Z,1012.33
2018-08-30T06:17:04.688Z,1012.40
2018-08-30T06:18:57.376Z,1012.39
2018-08-30T06:19:57.259Z,1012.42
2018-08-30T06:21:50.058Z,1012.43
2018-08-30T06:22:49.842Z,1012.44
2018-08-30T06:24:42.536Z,1012.47
2018-08-30T06:25:42.418Z,1012.48
2018-08-30T06:27:35.092Z,1012.49
2018-08-30T06:28:34.982Z,1012.45
2018-08-30T06:30:27.679Z,1012.44
2018-08-30T06:31:27.553Z,1012.47
2018-08-30T06:33:20.232Z,1012.49
2018-08-30T06:34:20.122Z,1012.51
2018-08-30T06:36:12.817Z,1012.54
2018-08-30T06:37:12.700Z,1012.49
2018-08-30T06:39:05.374Z,1012.53
2018-08-30T06:40:05.268Z,1012.52
2018-08-30T06:41:57.960Z,1012.56
2018-08-30T06:42:57.839Z,1012.51
2018-08-30T06:44:50.518Z,1012.48
2018-08-30T06:45:50.404Z,1012.53
2018-08-30T06:47:43.256Z,1012.57
2018-08-30T06:48:43.066Z,1012.58
2018-08-30T06:50:35.664Z,1012.58
2018-08-30T06:51:35.553Z,1012.56
2018-08-30T06:53:28.248Z,1012.55
2018-08-30T06:54:28.123Z,1012.64
2018-08-30T06:56:20.837Z,1012.67
2018-08-30T06:57:20.698Z,1012.71
2018-08-30T06:59:13.391Z,1012.69
2018-08-30T07:00:13.270Z,1012.73
2018-08-30T07:02:05.944Z,1012.70
2018-08-30T07:03:05.841Z,1012.85
2018-08-30T07:04:58.535Z,1012.75
2018-08-30T07:05:58.435Z,1012.79
2018-08-30T07:07:51.115Z,1012.82
2018-08-30T07:08:50.992Z,1012.78
2018-08-30T07:10:44.205Z,1012.79
2018-08-30T07:11:44.059Z,1012.75
2018-08-30T07:13:36.754Z,1012.82
2018-08-30T07:14:36.679Z,1012.86
2018-08-30T07:16:29.307Z,1012.91
2018-08-30T07:17:29.204Z,1012.89
2018-08-30T07:19:21.897Z,1012.94
2018-08-30T07:20:21.778Z,1012.95
2018-08-30T07:22:14.456Z,1012.98
2018-08-30T07:23:14.352Z,1013.00
2018-08-30T07:25:07.050Z,1013.07
2018-08-30T07:26:06.925Z,1013.03
2018-08-30T07:27:59.599Z,1013.07
2018-08-30T07:28:59.496Z,1013.07
2018-08-30T07:30:52.199Z,1013.10
2018-08-30T07:31:52.075Z,1013.14
2018-08-30T07:33:44.760Z,1013.07
2018-08-30T07:34:44.790Z,1013.10
2018-08-30T07:36:37.351Z,1013.13
2018-08-30T07:37:37.240Z,1013.18
2018-08-30T07:39:29.916Z,1013.21
2018-08-30T07:40:29.818Z,1013.31
2018-08-30T07:42:22.510Z,1013.30
2018-08-30T07:43:22.398Z,1013.15
2018-08-30T07:45:15.074Z,1013.23
2018-08-30T07:46:14.978Z,1013.32
2018-08-30T07:48:07.678Z,1013.32
2018-08-30T07:49:07.559Z,1013.36
2018-08-30T07:51:00.325Z,1013.23
2018-08-30T07:52:00.152Z,1013.30
2018-08-30T07:53:52.829Z,1013.28
2018-08-30T07:54:52.732Z,1013.34
2018-08-30T07:56:45.437Z,1013.33
2018-08-30T07:57:45.325Z,1013.33
2018-08-30T07:59:38.010Z,1013.35
2018-08-30T08:00:37.915Z,1013.37
2018-08-30T08:02:30.615Z,1013.41
2018-08-30T08:03:30.502Z,1013.31
2018-08-30T08:05:23.195Z,1013.46
2018-08-30T08:06:23.087Z,1013.46
2018-08-30T08:08:15.798Z,1013.49
2018-08-30T08:09:15.678Z,1013.37
2018-08-30T08:11:08.373Z,1013.57
2018-08-30T08:12:08.266Z,1013.47
2018-08-30T08:14:00.987Z,1013.64
2018-08-30T08:15:00.859Z,1013.56
2018-08-30T08:16:53.548Z,1013.43
2018-08-30T08:17:53.446Z,1013.51
2018-08-30T08:19:46.144Z,1013.47
2018-08-30T08:20:46.031Z,1013.50
2018-08-30T08:22:38.741Z,1013.44
2018-08-30T08:23:38.612Z,1013.41
2018-08-30T08:25:31.303Z,1013.50
2018-08-30T08:26:31.205Z,1013.41
2018-08-30T08:28:23.923Z,1013.49
2018-08-30T08:29:23.793Z,1013.49
2018-08-30T08:31:16.547Z,1013.46
2018-08-30T08:32:16.378Z,1013.53
2018-08-30T08:34:09.078Z,1013.50
2018-08-30T08:35:08.960Z,1013.53
2018-08-30T08:37:01.645Z,1013.49
2018-08-30T08:38:01.543Z,1013.49
2018-08-30T08:39:54.251Z,1013.65
2018-08-30T08:40:54.124Z,1013.59
2018-08-30T08:42:46.805Z,1013.55
2018-08-30T08:43:46.704Z,1013.60
2018-08-30T08:45:39.410Z,1013.66
2018-08-30T08:46:39.286Z,1013.63
2018-08-30T08:48:31.973Z,1013.60
2018-08-30T08:49:31.878Z,1013.59
2018-08-30T08:51:24.589Z,1013.59
2018-08-30T08:52:24.462Z,1013.55
2018-08-30T08:54:17.144Z,1013.51
2018-08-30T08:55:17.045Z,1013.56
2018-08-30T08:57:09.754Z,1013.53
2018-08-30T08:58:09.624Z,1013.53
2018-08-30T09:00:02.310Z,1013.57
2018-08-30T09:01:02.207Z,1013.62
2018-08-30T09:02:54.922Z,1013.62
2018-08-30T09:03:54.788Z,1013.59
2018-08-30T09:05:47.472Z,1013.61
2018-08-30T09:06:47.369Z,1013.59
2018-08-30T09:08:40.074Z,1013.57
2018-08-30T09:09:39.953Z,1013.67
2018-08-30T09:11:32.643Z,1013.65
2018-08-30T09:12:32.537Z,1013.68
2018-08-30T09:14:25.328Z,1013.64
2018-08-30T09:15:25.123Z,1013.62
2018-08-30T09:17:17.810Z,1013.65
2018-08-30T09:18:17.745Z,1013.70
2018-08-30T09:20:10.417Z,1013.62
2018-08-30T09:21:10.308Z,1013.63
2018-08-30T09:23:02.998Z,1013.68
2018-08-30T09:24:02.887Z,1013.66
2018-08-30T09:25:55.583Z,1013.77
2018-08-30T09:26:55.535Z,1013.84
2018-08-30T09:28:48.643Z,1013.81
2018-08-30T09:29:48.541Z,1013.73
2018-08-30T09:31:41.241Z,1013.77
2018-08-30T09:32:41.120Z,1013.78
2018-08-30T09:34:33.821Z,1013.88
2018-08-30T09:35:33.704Z,1013.90
2018-08-30T09:37:26.405Z,1013.80
2018-08-30T09:38:26.292Z,1013.89
2018-08-30T09:40:19.485Z,1013.86
2018-08-30T09:41:19.366Z,1013.91
2018-08-30T09:43:12.047Z,1013.95
2018-08-30T09:44:11.944Z,1013.95
2018-08-30T09:46:04.646Z,1013.86
2018-08-30T09:47:04.530Z,1013.94
2018-08-30T09:48:57.213Z,1013.97
2018-08-30T09:49:57.109Z,1013.97
2018-08-30T09:51:51.306Z,1013.90
2018-08-30T09:52:51.186Z,1013.93
2018-08-30T09:54:43.869Z,1013.97
2018-08-30T09:55:43.794Z,1013.91
2018-08-30T09:57:36.501Z,1013.92
2018-08-30T09:58:36.353Z,1013.86
2018-08-30T10:00:29.032Z,1013.85
2018-08-30T10:01:28.934Z,1013.82
2018-08-30T10:03:21.639Z,1013.86
2018-08-30T10:04:21.521Z,1013.88
2018-08-30T10:06:14.233Z,1013.84
2018-08-30T10:07:14.110Z,1013.89
2018-08-30T10:09:06.813Z,1013.88
2018-08-30T10:10:06.692Z,1013.92
2018-08-30T10:11:59.386Z,1013.84
2018-08-30T10:12:59.276Z,1013.87
2018-08-30T10:14:51.957Z,1013.88
2018-08-30T10:15:51.872Z,1013.89
2018-08-30T10:17:44.564Z,1013.89
2018-08-30T10:18:44.442Z,1013.95
2018-08-30T10:20:37.130Z,1013.91
2018-08-30T10:21:37.058Z,1013.93
2018-08-30T10:23:29.727Z,1013.89
2018-08-30T10:24:29.606Z,1013.82
2018-08-30T10:26:22.287Z,1013.82
2018-08-30T10:27:22.186Z,1013.80
2018-08-30T10:29:14.892Z,1013.88
2018-08-30T10:30:14.771Z,1013.88
2018-08-30T10:32:07.457Z,1013.97
2018-08-30T10:33:07.358Z,1013.92
2018-08-30T10:35:00.055Z,1013.93
2018-08-30T10:35:59.945Z,1013.92
2018-08-30T10:37:52.625Z,1013.95
2018-08-30T10:38:52.524Z,1013.95
2018-08-30T10:40:45.225Z,1013.94
2018-08-30T10:41:45.112Z,1014.01
2018-08-30T10:43:37.820Z,1013.93
2018-08-30T10:44:37.696Z,1013.93
2018-08-30T10:46:30.377Z,1013.91
2018-08-30T10:47:30.278Z,1013.96
2018-08-30T10:49:23.040Z,1013.90
2018-08-30T10:50:22.864Z,1013.92
2018-08-30T10:52:15.549Z,1013.89
2018-08-30T10:53:15.452Z,1013.92
2018-08-30T10:55:08.152Z,1013.92
2018-08-30T10:56:08.041Z,1013.87
2018-08-30T10:58:00.726Z,1013.91
2018-08-30T10:59:00.619Z,1013.91
2018-08-30T11:00:53.329Z,1013.94
2018-08-30T11:01:53.240Z,1014.00
2018-08-30T11:03:45.924Z,1013.90
2018-08-30T11:04:45.792Z,1013.94
2018-08-30T11:06:38.493Z,1013.93
2018-08-30T11:07:38.380Z,1013.91
2018-08-30T11:09:31.063Z,1013.92
2018-08-30T11:10:30.964Z,1013.94
2018-08-30T11:12:23.667Z,1013.92
2018-08-30T11:13:23.575Z,1013.91
2018-08-30T11:15:16.231Z,1013.95
2018-08-30T11:16:16.160Z,1013.91
2018-08-30T11:18:08.895Z,1013.87
2018-08-30T11:19:08.762Z,1013.84
2018-08-30T11:21:01.470Z,1013.89
2018-08-30T11:22:01.347Z,1013.98
2018-08-30T11:23:54.033Z,1013.92
2018-08-30T11:24:53.922Z,1013.93
2018-08-30T11:26:46.627Z,1013.98
2018-08-30T11:27:46.515Z,1013.96
2018-08-30T11:29:39.197Z,1013.99
2018-08-30T11:30:39.100Z,1014.00
2018-08-30T11:32:31.802Z,1013.96
2018-08-30T11:33:31.683Z,1013.96
2018-08-30T11:35:24.372Z,1013.88
2018-08-30T11:36:24.266Z,1013.88
2018-08-30T11:38:16.974Z,1013.89
2018-08-30T11:39:16.851Z,1013.93
2018-08-30T11:41:09.598Z,1013.97
2018-08-30T11:42:09.441Z,1013.92
2018-08-30T11:44:02.143Z,1013.90
2018-08-30T11:45:02.028Z,1013.84
2018-08-30T11:46:54.719Z,1013.85
2018-08-30T11:47:54.606Z,1013.81
2018-08-30T11:49:47.318Z,1013.92
2018-08-30T11:50:47.197Z,1013.92
2018-08-30T11:52:39.931Z,1014.00
2018-08-30T11:53:39.785Z,1014.05
2018-08-30T11:55:32.483Z,1014.00
2018-08-30T11:56:32.368Z,1014.01
2018-08-30T11:58:25.045Z,1014.01
2018-08-30T11:59:24.943Z,1013.99
2018-08-30T12:01:17.646Z,1014.02
2018-08-30T12:02:17.532Z,1013.93
2018-08-30T12:04:10.235Z,1013.96
2018-08-30T12:05:10.113Z,1013.98
2018-08-30T12:07:02.932Z,1014.05
2018-08-30T12:08:02.741Z,1014.08
2018-08-30T12:09:56.844Z,1014.07
2018-08-30T12:10:55.445Z,1014.04
2018-08-30T12:12:47.970Z,1014.04
2018-08-30T12:13:47.880Z,1014.02
2018-08-30T12:15:40.568Z,1014.04
2018-08-30T12:16:40.455Z,1014.06
2018-08-30T12:18:33.137Z,1014.15
2018-08-30T12:19:33.036Z,1014.14
2018-08-30T12:21:25.744Z,1014.21
2018-08-30T12:22:25.632Z,1014.15
2018-08-30T12:24:18.315Z,1014.17
2018-08-30T12:25:18.221Z,1014.18
2018-08-30T12:27:10.924Z,1014.21
2018-08-30T12:28:10.809Z,1014.22
2018-08-30T12:30:03.525Z,1014.14
2018-08-30T12:31:03.487Z,1014.20
2018-08-30T12:32:56.129Z,1014.15
2018-08-30T12:33:55.983Z,1014.15
2018-08-30T12:35:48.868Z,1014.20
2018-08-30T12:36:48.594Z,1014.14
2018-08-30T12:38:41.261Z,1014.19
2018-08-30T12:39:41.242Z,1014.21
2018-08-30T12:41:33.889Z,1014.17
2018-08-30T12:42:33.875Z,1014.15
2018-08-30T12:44:26.464Z,1014.18
2018-08-30T12:45:26.352Z,1014.14
2018-08-30T12:47:19.041Z,1014.21
2018-08-30T12:48:18.926Z,1014.15
2018-08-30T12:50:11.687Z,1014.17
2018-08-30T12:51:11.681Z,1014.06
2018-08-30T12:53:04.767Z,1014.13
2018-08-30T12:54:04.730Z,1014.16
2018-08-30T12:55:57.413Z,1014.29
2018-08-30T12:56:57.334Z,1014.29
2018-08-30T12:58:50.066Z,1014.49
2018-08-30T12:59:49.939Z,1014.56
2018-08-30T13:01:42.664Z,1014.57
2018-08-30T13:02:42.537Z,1014.66
2018-08-30T13:04:35.413Z,1014.64
2018-08-30T13:05:35.258Z,1014.72
2018-08-30T13:07:27.918Z,1014.65
2018-08-30T13:08:27.873Z,1014.75
2018-08-30T13:10:20.550Z,1014.87
2018-08-30T13:11:20.350Z,1014.87
2018-08-30T13:13:13.191Z,1014.90
2018-08-30T13:14:12.926Z,1014.91
2018-08-30T13:16:05.608Z,1014.93
2018-08-30T13:17:05.474Z,1014.96
2018-08-30T13:18:58.177Z,1014.91
2018-08-30T13:19:58.044Z,1014.96
2018-08-30T13:21:50.964Z,1014.93
2018-08-30T13:22:50.739Z,1014.93
2018-08-30T13:24:43.478Z,1014.94
2018-08-30T13:25:43.534Z,1014.92
2018-08-30T13:27:35.974Z,1014.91
2018-08-30T13:28:35.962Z,1014.99
2018-08-30T13:30:28.756Z,1014.91
2018-08-30T13:31:28.557Z,1014.93
2018-08-30T13:33:21.594Z,1014.99
2018-08-30T13:34:21.457Z,1014.95
2018-08-30T13:36:13.847Z,1014.94
2018-08-30T13:37:13.580Z,1014.94
2018-08-30T13:39:06.278Z,1014.92
2018-08-30T13:40:06.582Z,1014.90
2018-08-30T13:41:59.334Z,1014.94
2018-08-30T13:42:59.063Z,1014.91
2018-08-30T13:44:51.722Z,1014.87
2018-08-30T13:45:51.389Z,1014.90
2018-08-30T13:47:44.094Z,1014.92
2018-08-30T13:48:43.968Z,1014.92
2018-08-30T13:50:36.677Z,1014.94
2018-08-30T13:51:36.634Z,1015.02
2018-08-30T13:53:29.250Z,1014.93
2018-08-30T13:54:29.253Z,1014.99
2018-08-30T13:56:22.209Z,1014.97
2018-08-30T13:57:21.955Z,1014.98
2018-08-30T13:59:14.536Z,1015.03
2018-08-30T14:00:14.536Z,1015.04
2018-08-30T14:02:07.059Z,1015.05
2018-08-30T14:03:06.760Z,1015.07
2018-08-30T14:04:59.494Z,1015.07
2018-08-30T14:05:59.460Z,1015.06
2018-08-30T14:07:52.155Z,1015.11
2018-08-30T14:08:51.919Z,1015.06
2018-08-30T14:10:44.944Z,1015.08
2018-08-30T14:11:44.777Z,1015.14
2018-08-30T14:13:37.505Z,1015.12
2018-08-30T14:14:37.247Z,1015.20
2018-08-30T14:16:29.570Z,1015.28
2018-08-30T14:17:29.461Z,1015.29
2018-08-30T14:19:22.311Z,1015.22
2018-08-30T14:20:22.042Z,1015.26
2018-08-30T14:22:14.729Z,1015.28
2018-08-30T14:23:14.623Z,1015.34
2018-08-30T14:25:07.326Z,1015.36
2018-08-30T14:26:07.208Z,1015.36
2018-08-30T14:27:59.920Z,1015.34
2018-08-30T14:28:59.887Z,1015.33
2018-08-30T14:30:52.473Z,1015.30
2018-08-30T14:31:52.368Z,1015.45
2018-08-30T14:33:45.074Z,1015.30
2018-08-30T14:34:45.054Z,1015.31
2018-08-30T14:36:37.648Z,1015.35
2018-08-30T14:37:37.549Z,1015.29
2018-08-30T14:39:30.232Z,1015.31
2018-08-30T14:40:30.110Z,1015.36
2018-08-30T14:42:22.837Z,1015.30
2018-08-30T14:43:22.685Z,1015.26
2018-08-30T14:45:15.382Z,1015.28
2018-08-30T14:46:15.254Z,1015.27
2018-08-30T14:48:08.048Z,1015.30
2018-08-30T14:49:07.839Z,1015.27
2018-08-30T14:51:00.542Z,1015.29
2018-08-30T14:52:00.415Z,1015.30
2018-08-30T14:53:53.116Z,1015.26
2018-08-30T14:54:52.996Z,1015.25
2018-08-30T14:56:45.697Z,1015.24
2018-08-30T14:57:45.672Z,1015.36
2018-08-30T14:59:38.284Z,1015.33
2018-08-30T15:00:38.154Z,1015.33
2018-08-30T15:02:30.894Z,1015.34
2018-08-30T15:03:30.736Z,1015.34
2018-08-30T15:05:23.552Z,1015.36
2018-08-30T15:06:23.310Z,1015.35
2018-08-30T15:08:15.991Z,1015.37
2018-08-30T15:09:15.890Z,1015.40
2018-08-30T15:11:08.610Z,1015.39
2018-08-30T15:12:08.480Z,1015.46
2018-08-30T15:14:01.147Z,1015.48
2018-08-30T15:15:01.050Z,1015.34
2018-08-30T15:16:53.771Z,1015.38
2018-08-30T15:17:53.626Z,1015.35
2018-08-30T15:19:46.414Z,1015.37
2018-08-30T15:20:46.197Z,1015.39
2018-08-30T15:22:39.013Z,1015.40
2018-08-30T15:23:38.792Z,1015.43
2018-08-30T15:25:31.477Z,1015.41
2018-08-30T15:26:31.372Z,1015.47
2018-08-30T15:28:24.071Z,1015.50
2018-08-30T15:29:24.065Z,1015.44
2018-08-30T15:31:16.641Z,1015.46
2018-08-30T15:32:16.563Z,1015.48
2018-08-30T15:34:09.236Z,1015.49
2018-08-30T15:35:09.181Z,1015.52
2018-08-30T15:37:01.824Z,1015.52
2018-08-30T15:38:01.729Z,1015.54
2018-08-30T15:39:54.375Z,1015.59
2018-08-30T15:40:54.276Z,1015.54
2018-08-30T15:42:46.970Z,1015.60
2018-08-30T15:43:46.850Z,1015.63
2018-08-30T15:45:39.568Z,1015.60
2018-08-30T15:46:39.443Z,1015.60
2018-08-30T15:48:32.140Z,1015.60
2018-08-30T15:49:32.097Z,1015.60
2018-08-30T15:51:24.732Z,1015.65
2018-08-30T15:52:24.592Z,1015.64
2018-08-30T15:54:17.284Z,1015.65
2018-08-30T15:55:17.176Z,1015.67
2018-08-30T15:57:09.859Z,1015.62
2018-08-30T15:58:09.743Z,1015.62
2018-08-30T16:00:02.436Z,1015.58
2018-08-30T16:01:02.315Z,1015.59
2018-08-30T16:02:55.053Z,1015.61
2018-08-30T16:03:54.893Z,1015.64
2018-08-30T16:05:47.583Z,1015.63
2018-08-30T16:06:47.527Z,1015.64
2018-08-30T16:08:40.173Z,1015.61
2018-08-30T16:09:40.045Z,1015.59
2018-08-30T16:11:32.725Z,1015.58
2018-08-30T16:12:32.619Z,1015.60
2018-08-30T16:14:25.324Z,1015.63
2018-08-30T16:15:25.199Z,1015.59
2018-08-30T16:17:17.979Z,1015.58
2018-08-30T16:18:17.773Z,1015.60
2018-08-30T16:20:10.478Z,1015.57
2018-08-30T16:21:10.349Z,1015.60
2018-08-30T16:23:03.051Z,1015.58
2018-08-30T16:24:02.934Z,1015.66
2018-08-30T16:25:55.634Z,1015.64
2018-08-30T16:26:55.585Z,1015.60
2018-08-30T16:28:48.184Z,1015.59
2018-08-30T16:29:48.085Z,1015.57
2018-08-30T16:31:40.784Z,1015.61
2018-08-30T16:32:40.669Z,1015.58
2018-08-30T16:34:33.349Z,1015.56
2018-08-30T16:35:33.242Z,1015.61
2018-08-30T16:37:25.937Z,1015.58
2018-08-30T16:38:25.827Z,1015.59
2018-08-30T16:40:19.101Z,1015.61
2018-08-30T16:41:19.116Z,1015.63
2018-08-30T16:43:11.714Z,1015.66
2018-08-30T16:44:11.589Z,1015.69
2018-08-30T16:46:04.292Z,1015.68
2018-08-30T16:47:04.178Z,1015.70
2018-08-30T16:48:56.928Z,1015.70
2018-08-30T16:49:56.738Z,1015.71
2018-08-30T16:51:49.439Z,1015.65
2018-08-30T16:52:49.323Z,1015.65
2018-08-30T16:54:41.999Z,1015.66
2018-08-30T16:55:42.020Z,1015.68
2018-08-30T16:57:34.601Z,1015.70
2018-08-30T16:58:34.515Z,1015.69
2018-08-30T17:00:27.160Z,1015.66
2018-08-30T17:01:27.051Z,1015.71
2018-08-30T17:03:19.751Z,1015.69
2018-08-30T17:04:19.627Z,1015.70
2018-08-30T17:06:12.327Z,1015.67
2018-08-30T17:07:12.204Z,1015.63
2018-08-30T17:09:04.907Z,1015.79
2018-08-30T17:10:04.780Z,1015.76
2018-08-30T17:11:57.496Z,1015.74
2018-08-30T17:12:57.360Z,1015.72
2018-08-30T17:14:50.060Z,1015.73
2018-08-30T17:15:49.938Z,1015.72
2018-08-30T17:17:43.194Z,1015.77
2018-08-30T17:18:43.000Z,1015.75
2018-08-30T17:20:35.683Z,1015.75
2018-08-30T17:21:35.584Z,1015.79
2018-08-30T17:23:28.341Z,1015.78
2018-08-30T17:24:28.155Z,1015.74
2018-08-30T17:26:20.859Z,1015.79
2018-08-30T17:27:20.768Z,1015.75
2018-08-30T17:29:13.430Z,1015.70
2018-08-30T17:30:13.518Z,1015.74
2018-08-30T17:32:05.988Z,1015.68
2018-08-30T17:33:05.889Z,1015.74
2018-08-30T17:34:58.577Z,1015.66
2018-08-30T17:35:58.459Z,1015.70
2018-08-30T17:37:51.146Z,1015.75
2018-08-30T17:38:51.036Z,1015.68
2018-08-30T17:40:43.736Z,1015.67
2018-08-30T17:41:43.618Z,1015.68
2018-08-30T17:43:36.356Z,1015.64
2018-08-30T17:44:36.247Z,1015.67
2018-08-30T17:46:28.946Z,1015.68
2018-08-30T17:47:28.820Z,1015.71
2018-08-30T17:49:21.502Z,1015.70
2018-08-30T17:50:21.449Z,1015.67
2018-08-30T17:52:14.114Z,1015.72
2018-08-30T17:53:13.972Z,1015.66
2018-08-30T17:55:06.654Z,1015.68
2018-08-30T17:56:06.684Z,1015.70
2018-08-30T17:57:59.242Z,1015.73
2018-08-30T17:58:59.159Z,1015.77
2018-08-30T18:00:51.882Z,1015.75
2018-08-30T18:01:51.763Z,1015.78
2018-08-30T18:03:44.448Z,1015.76
2018-08-30T18:04:44.338Z,1015.80
2018-08-30T18:06:37.036Z,1015.81
2018-08-30T18:07:36.914Z,1015.83
2018-08-30T18:09:29.596Z,1015.84
2018-08-30T18:10:29.487Z,1015.82
2018-08-30T18:12:22.181Z,1015.85
2018-08-30T18:13:22.056Z,1015.81
2018-08-30T18:15:14.742Z,1015.86
2018-08-30T18:16:14.630Z,1015.89
2018-08-30T18:18:07.425Z,1015.88
2018-08-30T18:19:07.201Z,1015.89
2018-08-30T18:20:59.883Z,1015.86
2018-08-30T18:21:59.774Z,1015.88
2018-08-30T18:23:52.474Z,1015.89
2018-08-30T18:24:52.348Z,1015.91
2018-08-30T18:26:45.026Z,1015.94
2018-08-30T18:27:44.920Z,1015.96
2018-08-30T18:29:37.615Z,1016.00
2018-08-30T18:30:37.499Z,1016.01
2018-08-30T18:32:30.182Z,1016.07
2018-08-30T18:33:30.065Z,1016.08
2018-08-30T18:35:22.768Z,1016.12
2018-08-30T18:36:22.649Z,1016.12
2018-08-30T18:38:15.317Z,1016.12
2018-08-30T18:39:15.219Z,1016.10
2018-08-30T18:41:07.910Z,1016.10
2018-08-30T18:42:07.796Z,1016.10
2018-08-30T18:44:00.984Z,1016.14
2018-08-30T18:45:00.859Z,1016.13
2018-08-30T18:46:53.532Z,1016.15
2018-08-30T18:47:53.426Z,1016.13
2018-08-30T18:49:46.624Z,1016.17
2018-08-30T18:50:46.529Z,1016.21
2018-08-30T18:52:39.182Z,1016.24
2018-08-30T18:53:39.073Z,1016.22
2018-08-30T18:55:31.779Z,1016.23
2018-08-30T18:56:31.660Z,1016.26
2018-08-30T18:58:24.332Z,1016.27
2018-08-30T18:59:24.231Z,1016.31
2018-08-30T19:01:16.924Z,1016.31
2018-08-30T19:02:16.799Z,1016.33
2018-08-30T19:04:09.484Z,1016.35
2018-08-30T19:05:09.379Z,1016.34
2018-08-30T19:07:02.070Z,1016.35
2018-08-30T19:08:01.950Z,1016.37
2018-08-30T19:09:54.624Z,1016.35
2018-08-30T19:10:54.516Z,1016.39
2018-08-30T19:12:47.217Z,1016.37
2018-08-30T19:13:47.096Z,1016.37
2018-08-30T19:15:39.804Z,1016.40
2018-08-30T19:16:39.673Z,1016.41
2018-08-30T19:18:32.350Z,1016.44
2018-08-30T19:19:32.245Z,1016.42
2018-08-30T19:21:24.945Z,1016.46
2018-08-30T19:22:24.817Z,1016.46
2018-08-30T19:24:17.493Z,1016.52
2018-08-30T19:25:17.401Z,1016.47
2018-08-30T19:27:10.085Z,1016.49
2018-08-30T19:28:09.958Z,1016.47
2018-08-30T19:30:03.142Z,1016.50
2018-08-30T19:31:03.033Z,1016.52
2018-08-30T19:32:55.728Z,1016.55
2018-08-30T19:33:55.608Z,1016.55
2018-08-30T19:35:48.280Z,1016.60
2018-08-30T19:36:48.171Z,1016.55
2018-08-30T19:38:40.869Z,1016.58
2018-08-30T19:39:40.743Z,1016.60
2018-08-30T19:41:33.421Z,1016.60
